createdAt,value
2022-08-20T00:00:55.000Z,19.84
2022-08-20T00:01:55.000Z,19.84
2022-08-20T00:02:55.000Z,19.88
2022-08-20T00:03:55.000Z,19.84
2022-08-20T00:04:55.000Z,19.81
2022-08-20T00:05:55.000Z,19.79
2022-08-20T00:06:55.000Z,19.79
2022-08-20T00:07:55.000Z,19.77
2022-08-20T00:08:55.000Z,19.81
2022-08-20T00:09:55.000Z,19.79
2022-08-20T00:10:55.000Z,19.76
2022-08-20T00:11:55.000Z,19.79
2022-08-20T00:12:55.000Z,19.82
2022-08-20T00:13:55.000Z,19.81
2022-08-20T00:14:55.000Z,19.81
2022-08-20T00:15:55.000Z,19.79
2022-08-20T00:16:55.000Z,19.81
2022-08-20T00:17:55.000Z,19.76
2022-08-20T00:18:55.000Z,19.73
2022-08-20T00:19:55.000Z,19.74
2022-08-20T00:20:55.000Z,19.73
2022-08-20T00:21:55.000Z,19.73
2022-08-20T00:22:55.000Z,19.71
2022-08-20T00:23:55.000Z,19.70
2022-08-20T00:24:55.000Z,19.71
2022-08-20T00:25:55.000Z,19.73
2022-08-20T00:26:55.000Z,19.71
2022-08-20T00:27:55.000Z,19.69
2022-08-20T00:28:55.000Z,19.67
2022-08-20T00:29:55.000Z,19.71
2022-08-20T00:30:55.000Z,19.67
2022-08-20T00:31:54.000Z,19.69
2022-08-20T00:32:54.000Z,19.62
2022-08-20T00:33:54.000Z,19.62
2022-08-20T00:34:54.000Z,19.62
2022-08-20T00:35:54.000Z,19.59
2022-08-20T00:36:54.000Z,19.56
2022-08-20T00:37:54.000Z,19.58
2022-08-20T00:38:54.000Z,19.59
2022-08-20T00:39:54.000Z,19.54
2022-08-20T00:40:54.000Z,19.52
2022-08-20T00:41:54.000Z,19.49
2022-08-20T00:42:54.000Z,19.51
2022-08-20T00:43:54.000Z,19.52
2022-08-20T00:44:54.000Z,19.47
2022-08-20T00:45:54.000Z,19.45
2022-08-20T00:46:54.000Z,19.48
2022-08-20T00:47:54.000Z,19.45
2022-08-20T00:48:54.000Z,19.44
2022-08-20T00:49:54.000Z,19.44
2022-08-20T00:50:54.000Z,19.45
2022-08-20T00:51:54.000Z,19.47
2022-08-20T00:52:54.000Z,19.52
2022-08-20T00:53:54.000Z,19.48
2022-08-20T00:54:54.000Z,19.47
2022-08-20T00:55:54.000Z,19.54
2022-08-20T00:56:54.000Z,19.48
2022-08-20T00:57:54.000Z,19.49
2022-08-20T00:58:54.000Z,19.52
2022-08-20T00:59:54.000Z,19.51
2022-08-20T01:00:54.000Z,19.49
2022-08-20T01:01:54.000Z,19.49
2022-08-20T01:02:54.000Z,19.48
2022-08-20T01:03:54.000Z,19.48
2022-08-20T01:04:54.000Z,19.49
2022-08-20T01:05:54.000Z,19.48
2022-08-20T01:06:54.000Z,19.48
2022-08-20T01:07:54.000Z,19.48
2022-08-20T01:08:54.000Z,19.49
2022-08-20T01:09:54.000Z,19.51
2022-08-20T01:10:54.000Z,19.47
2022-08-20T01:11:54.000Z,19.48
2022-08-20T01:12:54.000Z,19.49
2022-08-20T01:13:54.000Z,19.48
2022-08-20T01:14:54.000Z,19.49
2022-08-20T01:15:54.000Z,19.48
2022-08-20T01:16:54.000Z,19.47
2022-08-20T01:17:54.000Z,19.47
2022-08-20T01:18:54.000Z,19.47
2022-08-20T01:19:54.000Z,19.49
2022-08-20T01:20:54.000Z,19.48
2022-08-20T01:21:54.000Z,19.45
2022-08-20T01:22:54.000Z,19.45
2022-08-20T01:23:54.000Z,19.47
2022-08-20T01:24:54.000Z,19.44
2022-08-20T01:25:54.000Z,19.45
2022-08-20T01:26:54.000Z,19.47
2022-08-20T01:27:54.000Z,19.45
2022-08-20T01:28:54.000Z,19.47
2022-08-20T01:29:54.000Z,19.45
2022-08-20T01:30:54.000Z,19.45
2022-08-20T01:31:54.000Z,19.47
2022-08-20T01:32:54.000Z,19.45
2022-08-20T01:33:54.000Z,19.45
2022-08-20T01:34:54.000Z,19.45
2022-08-20T01:35:54.000Z,19.44
2022-08-20T01:36:54.000Z,19.41
2022-08-20T01:37:54.000Z,19.45
2022-08-20T01:38:54.000Z,19.44
2022-08-20T01:39:54.000Z,19.44
2022-08-20T01:40:54.000Z,19.40
2022-08-20T01:41:54.000Z,19.48
2022-08-20T01:42:54.000Z,19.41
2022-08-20T01:43:54.000Z,19.44
2022-08-20T01:44:54.000Z,19.44
2022-08-20T01:45:54.000Z,19.41
2022-08-20T01:46:54.000Z,19.41
2022-08-20T01:47:54.000Z,19.41
2022-08-20T01:48:54.000Z,19.40
2022-08-20T01:49:54.000Z,19.40
2022-08-20T01:50:54.000Z,19.44
2022-08-20T01:51:54.000Z,19.47
2022-08-20T01:52:54.000Z,19.40
2022-08-20T01:53:54.000Z,19.37
2022-08-20T01:54:54.000Z,19.41
2022-08-20T01:55:54.000Z,19.39
2022-08-20T01:56:54.000Z,19.40
2022-08-20T01:57:54.000Z,19.40
2022-08-20T01:58:54.000Z,19.34
2022-08-20T01:59:54.000Z,19.39
2022-08-20T02:00:54.000Z,19.37
2022-08-20T02:01:53.000Z,19.40
2022-08-20T02:02:53.000Z,19.36
2022-08-20T02:03:53.000Z,19.36
2022-08-20T02:04:53.000Z,19.33
2022-08-20T02:05:53.000Z,19.33
2022-08-20T02:06:53.000Z,19.34
2022-08-20T02:07:53.000Z,19.31
2022-08-20T02:08:53.000Z,19.30
2022-08-20T02:09:53.000Z,19.29
2022-08-20T02:10:53.000Z,19.29
2022-08-20T02:11:53.000Z,19.24
2022-08-20T02:12:53.000Z,19.24
2022-08-20T02:13:53.000Z,19.24
2022-08-20T02:14:53.000Z,19.22
2022-08-20T02:15:53.000Z,19.24
2022-08-20T02:16:53.000Z,19.22
2022-08-20T02:17:53.000Z,19.21
2022-08-20T02:18:53.000Z,19.22
2022-08-20T02:19:53.000Z,19.24
2022-08-20T02:20:53.000Z,19.21
2022-08-20T02:21:53.000Z,19.19
2022-08-20T02:22:53.000Z,19.24
2022-08-20T02:23:53.000Z,19.24
2022-08-20T02:24:53.000Z,19.21
2022-08-20T02:25:53.000Z,19.22
2022-08-20T02:26:53.000Z,19.26
2022-08-20T02:27:53.000Z,19.21
2022-08-20T02:28:53.000Z,19.22
2022-08-20T02:29:53.000Z,19.26
2022-08-20T02:30:53.000Z,19.24
2022-08-20T02:31:53.000Z,19.22
2022-08-20T02:32:53.000Z,19.24
2022-08-20T02:33:53.000Z,19.26
2022-08-20T02:34:53.000Z,19.26
2022-08-20T02:35:53.000Z,19.22
2022-08-20T02:36:53.000Z,19.27
2022-08-20T02:37:53.000Z,19.24
2022-08-20T02:38:53.000Z,19.26
2022-08-20T02:39:53.000Z,19.24
2022-08-20T02:40:53.000Z,19.22
2022-08-20T02:41:53.000Z,19.27
2022-08-20T02:42:53.000Z,19.24
2022-08-20T02:43:53.000Z,19.22
2022-08-20T02:44:53.000Z,19.24
2022-08-20T02:45:53.000Z,19.26
2022-08-20T02:46:53.000Z,19.26
2022-08-20T02:47:53.000Z,19.26
2022-08-20T02:48:53.000Z,19.21
2022-08-20T02:49:53.000Z,19.24
2022-08-20T02:50:53.000Z,19.27
2022-08-20T02:51:53.000Z,19.24
2022-08-20T02:52:53.000Z,19.27
2022-08-20T02:53:53.000Z,19.24
2022-08-20T02:54:53.000Z,19.24
2022-08-20T02:55:53.000Z,19.24
2022-08-20T02:56:53.000Z,19.22
2022-08-20T02:57:53.000Z,19.22
2022-08-20T02:58:53.000Z,19.22
2022-08-20T02:59:53.000Z,19.27
2022-08-20T03:00:53.000Z,19.26
2022-08-20T03:01:53.000Z,19.24
2022-08-20T03:02:53.000Z,19.29
2022-08-20T03:03:53.000Z,19.26
2022-08-20T03:04:53.000Z,19.22
2022-08-20T03:05:53.000Z,19.22
2022-08-20T03:06:53.000Z,19.24
2022-08-20T03:07:53.000Z,19.24
2022-08-20T03:08:53.000Z,19.27
2022-08-20T03:09:53.000Z,19.26
2022-08-20T03:10:53.000Z,19.27
2022-08-20T03:11:53.000Z,19.22
2022-08-20T03:12:53.000Z,19.24
2022-08-20T03:13:53.000Z,19.26
2022-08-20T03:14:53.000Z,19.26
2022-08-20T03:15:53.000Z,19.27
2022-08-20T03:16:53.000Z,19.22
2022-08-20T03:17:53.000Z,19.22
2022-08-20T03:18:53.000Z,19.19
2022-08-20T03:19:53.000Z,19.19
2022-08-20T03:20:53.000Z,19.19
2022-08-20T03:21:53.000Z,19.19
2022-08-20T03:22:53.000Z,19.18
2022-08-20T03:23:53.000Z,19.16
2022-08-20T03:24:53.000Z,19.16
2022-08-20T03:25:53.000Z,19.18
2022-08-20T03:26:53.000Z,19.19
2022-08-20T03:27:53.000Z,19.12
2022-08-20T03:28:53.000Z,19.14
2022-08-20T03:29:53.000Z,19.14
2022-08-20T03:30:53.000Z,19.12
2022-08-20T03:31:52.000Z,19.12
2022-08-20T03:32:52.000Z,19.11
2022-08-20T03:33:52.000Z,19.12
2022-08-20T03:34:52.000Z,19.09
2022-08-20T03:35:52.000Z,19.09
2022-08-20T03:36:52.000Z,19.09
2022-08-20T03:37:52.000Z,19.09
2022-08-20T03:38:52.000Z,19.07
2022-08-20T03:39:52.000Z,19.08
2022-08-20T03:40:52.000Z,19.07
2022-08-20T03:41:52.000Z,19.08
2022-08-20T03:42:52.000Z,19.02
2022-08-20T03:43:52.000Z,19.04
2022-08-20T03:44:52.000Z,19.02
2022-08-20T03:45:52.000Z,19.07
2022-08-20T03:46:52.000Z,19.04
2022-08-20T03:47:52.000Z,19.00
2022-08-20T03:48:52.000Z,19.02
2022-08-20T03:49:52.000Z,19.00
2022-08-20T03:50:52.000Z,19.02
2022-08-20T03:51:52.000Z,19.00
2022-08-20T03:52:52.000Z,19.02
2022-08-20T03:53:52.000Z,19.02
2022-08-20T03:54:52.000Z,19.00
2022-08-20T03:55:52.000Z,19.00
2022-08-20T03:56:52.000Z,18.98
2022-08-20T03:57:52.000Z,18.99
2022-08-20T03:58:52.000Z,19.04
2022-08-20T03:59:52.000Z,19.00
2022-08-20T04:00:52.000Z,18.98
2022-08-20T04:01:52.000Z,18.99
2022-08-20T04:02:52.000Z,18.96
2022-08-20T04:03:52.000Z,18.96
2022-08-20T04:04:52.000Z,18.98
2022-08-20T04:05:52.000Z,18.96
2022-08-20T04:06:52.000Z,18.96
2022-08-20T04:07:52.000Z,18.98
2022-08-20T04:08:52.000Z,18.99
2022-08-20T04:09:52.000Z,18.96
2022-08-20T04:10:52.000Z,18.96
2022-08-20T04:11:52.000Z,18.98
2022-08-20T04:12:52.000Z,18.98
2022-08-20T04:13:52.000Z,18.98
2022-08-20T04:14:52.000Z,18.96
2022-08-20T04:15:52.000Z,18.98
2022-08-20T04:16:52.000Z,18.96
2022-08-20T04:17:52.000Z,19.00
2022-08-20T04:18:52.000Z,18.98
2022-08-20T04:19:52.000Z,18.95
2022-08-20T04:20:52.000Z,18.98
2022-08-20T04:21:52.000Z,18.99
2022-08-20T04:22:52.000Z,18.99
2022-08-20T04:23:52.000Z,18.98
2022-08-20T04:24:52.000Z,19.00
2022-08-20T04:25:52.000Z,19.00
2022-08-20T04:26:52.000Z,18.98
2022-08-20T04:27:52.000Z,18.98
2022-08-20T04:28:52.000Z,19.00
2022-08-20T04:29:52.000Z,18.99
2022-08-20T04:30:52.000Z,19.02
2022-08-20T04:31:52.000Z,18.99
2022-08-20T04:32:52.000Z,18.98
2022-08-20T04:33:52.000Z,18.99
2022-08-20T04:34:52.000Z,18.96
2022-08-20T04:35:52.000Z,18.99
2022-08-20T04:36:52.000Z,19.02
2022-08-20T04:37:52.000Z,19.02
2022-08-20T04:38:52.000Z,18.98
2022-08-20T04:39:52.000Z,18.99
2022-08-20T04:40:52.000Z,19.02
2022-08-20T04:41:52.000Z,18.99
2022-08-20T04:42:52.000Z,19.04
2022-08-20T04:43:52.000Z,19.02
2022-08-20T04:44:52.000Z,19.08
2022-08-20T04:45:52.000Z,19.02
2022-08-20T04:46:52.000Z,19.04
2022-08-20T04:47:52.000Z,19.07
2022-08-20T04:48:52.000Z,19.04
2022-08-20T04:49:52.000Z,19.07
2022-08-20T04:50:52.000Z,19.09
2022-08-20T04:51:52.000Z,19.09
2022-08-20T04:52:52.000Z,19.09
2022-08-20T04:53:52.000Z,19.11
2022-08-20T04:54:52.000Z,19.14
2022-08-20T04:55:52.000Z,19.14
2022-08-20T04:56:52.000Z,19.16
2022-08-20T04:57:52.000Z,19.15
2022-08-20T04:58:52.000Z,19.18
2022-08-20T04:59:52.000Z,19.18
2022-08-20T05:00:52.000Z,19.21
2022-08-20T05:01:52.000Z,19.19
2022-08-20T05:02:52.000Z,19.22
2022-08-20T05:03:52.000Z,19.21
2022-08-20T05:04:51.000Z,19.21
2022-08-20T05:05:51.000Z,19.19
2022-08-20T05:06:51.000Z,19.29
2022-08-20T05:14:09.000Z,19.31
2022-08-20T05:14:09.000Z,19.26
2022-08-20T05:15:09.000Z,19.26
2022-08-20T05:16:09.000Z,19.29
2022-08-20T05:17:09.000Z,19.30
2022-08-20T05:18:08.000Z,19.34
2022-08-20T05:19:08.000Z,19.33
2022-08-20T05:20:08.000Z,19.30
2022-08-20T05:21:08.000Z,19.31
2022-08-20T05:22:08.000Z,19.31
2022-08-20T05:23:08.000Z,19.33
2022-08-20T05:24:08.000Z,19.36
2022-08-20T05:25:08.000Z,19.34
2022-08-20T05:26:08.000Z,19.37
2022-08-20T05:27:08.000Z,19.37
2022-08-20T05:28:08.000Z,19.40
2022-08-20T05:29:08.000Z,19.40
2022-08-20T05:30:08.000Z,19.39
2022-08-20T05:31:08.000Z,19.40
2022-08-20T05:32:08.000Z,19.40
2022-08-20T05:33:08.000Z,19.40
2022-08-20T05:34:08.000Z,19.39
2022-08-20T05:35:08.000Z,19.37
2022-08-20T05:36:08.000Z,19.39
2022-08-20T05:37:08.000Z,19.37
2022-08-20T05:38:08.000Z,19.36
2022-08-20T05:39:08.000Z,19.31
2022-08-20T05:40:08.000Z,19.34
2022-08-20T05:41:08.000Z,19.34
2022-08-20T05:42:08.000Z,19.36
2022-08-20T05:43:08.000Z,19.37
2022-08-20T05:44:08.000Z,19.34
2022-08-20T05:45:08.000Z,19.36
2022-08-20T05:46:08.000Z,19.34
2022-08-20T05:47:08.000Z,19.33
2022-08-20T05:48:08.000Z,19.36
2022-08-20T05:49:08.000Z,19.33
2022-08-20T05:50:08.000Z,19.33
2022-08-20T05:51:08.000Z,19.33
2022-08-20T05:52:08.000Z,19.34
2022-08-20T05:53:08.000Z,19.36
2022-08-20T05:54:08.000Z,19.36
2022-08-20T05:55:08.000Z,19.34
2022-08-20T05:56:08.000Z,19.37
2022-08-20T05:57:08.000Z,19.34
2022-08-20T05:58:08.000Z,19.34
2022-08-20T05:59:08.000Z,19.34
2022-08-20T06:00:08.000Z,19.33
2022-08-20T06:01:08.000Z,19.33
2022-08-20T06:02:08.000Z,19.36
2022-08-20T06:03:08.000Z,19.36
2022-08-20T06:04:08.000Z,19.41
2022-08-20T06:05:08.000Z,19.34
2022-08-20T06:06:08.000Z,19.33
2022-08-20T06:07:08.000Z,19.36
2022-08-20T06:08:08.000Z,19.34
2022-08-20T06:09:08.000Z,19.39
2022-08-20T06:10:08.000Z,19.44
2022-08-20T06:11:08.000Z,19.39
2022-08-20T06:12:08.000Z,19.40
2022-08-20T06:13:08.000Z,19.44
2022-08-20T06:13:08.000Z,19.44
2022-08-20T06:14:08.000Z,19.40
2022-08-20T06:14:08.000Z,19.40
2022-08-20T06:15:08.000Z,19.40
2022-08-20T06:15:08.000Z,19.40
2022-08-20T06:16:08.000Z,19.44
2022-08-20T06:16:08.000Z,19.44
2022-08-20T06:17:08.000Z,19.41
2022-08-20T06:17:08.000Z,19.41
2022-08-20T06:18:08.000Z,19.41
2022-08-20T06:19:08.000Z,19.44
2022-08-20T06:20:08.000Z,19.45
2022-08-20T06:21:08.000Z,19.44
2022-08-20T06:22:08.000Z,19.47
2022-08-20T06:23:08.000Z,19.48
2022-08-20T06:24:08.000Z,19.47
2022-08-20T06:25:08.000Z,19.49
2022-08-20T06:26:08.000Z,19.48
2022-08-20T06:27:08.000Z,19.49
2022-08-20T06:28:08.000Z,19.52
2022-08-20T06:29:08.000Z,19.54
2022-08-20T06:30:08.000Z,19.51
2022-08-20T06:31:08.000Z,19.51
2022-08-20T06:32:08.000Z,19.56
2022-08-20T06:33:08.000Z,19.55
2022-08-20T06:34:08.000Z,19.56
2022-08-20T06:35:08.000Z,19.59
2022-08-20T06:36:08.000Z,19.58
2022-08-20T06:37:08.000Z,19.64
2022-08-20T06:38:08.000Z,19.64
2022-08-20T06:39:08.000Z,19.66
2022-08-20T06:40:08.000Z,19.67
2022-08-20T06:41:08.000Z,19.69
2022-08-20T06:42:08.000Z,19.70
2022-08-20T06:50:24.000Z,19.88
2022-08-20T06:50:24.000Z,19.88
2022-08-20T06:51:24.000Z,19.89
2022-08-20T06:52:24.000Z,19.88
2022-08-20T07:20:50.000Z,19.71
2022-08-20T07:20:50.000Z,19.73
2022-08-20T07:21:50.000Z,19.69
2022-08-20T07:22:49.000Z,19.71
2022-08-20T07:23:49.000Z,19.70
2022-08-20T07:24:49.000Z,19.71
2022-08-20T07:25:49.000Z,19.71
2022-08-20T07:26:49.000Z,19.76
2022-08-20T07:27:49.000Z,19.76
2022-08-20T07:28:49.000Z,19.81
2022-08-20T07:29:49.000Z,19.79
2022-08-20T07:30:49.000Z,19.79
2022-08-20T07:31:49.000Z,19.84
2022-08-20T07:32:49.000Z,19.81
2022-08-20T07:33:49.000Z,19.82
2022-08-20T07:34:49.000Z,19.84
2022-08-20T07:35:49.000Z,19.84
2022-08-20T07:36:49.000Z,19.86
2022-08-20T07:37:49.000Z,19.88
2022-08-20T07:38:49.000Z,19.89
2022-08-20T07:39:49.000Z,19.89
2022-08-20T07:40:49.000Z,19.92
2022-08-20T07:41:49.000Z,19.89
2022-08-20T07:42:49.000Z,19.88
2022-08-20T07:43:49.000Z,19.88
2022-08-20T07:44:49.000Z,19.92
2022-08-20T07:45:49.000Z,19.92
2022-08-20T07:46:49.000Z,19.92
2022-08-20T07:47:49.000Z,19.94
2022-08-20T07:48:49.000Z,20.00
2022-08-20T07:49:49.000Z,19.99
2022-08-20T07:50:49.000Z,20.09
2022-08-20T07:51:49.000Z,20.06
2022-08-20T07:52:49.000Z,20.06
2022-08-20T07:53:49.000Z,20.10
2022-08-20T07:54:49.000Z,20.13
2022-08-20T07:55:49.000Z,20.18
2022-08-20T07:56:49.000Z,20.18
2022-08-20T07:57:49.000Z,20.22
2022-08-20T07:58:49.000Z,20.24
2022-08-20T07:59:49.000Z,20.25
2022-08-20T08:00:49.000Z,20.29
2022-08-20T08:01:49.000Z,20.32
2022-08-20T08:02:49.000Z,20.36
2022-08-20T08:03:49.000Z,20.39
2022-08-20T08:04:49.000Z,20.41
2022-08-20T08:05:49.000Z,20.44
2022-08-20T08:06:49.000Z,20.48
2022-08-20T08:07:49.000Z,20.50
2022-08-20T08:08:49.000Z,20.56
2022-08-20T08:09:49.000Z,20.58
2022-08-20T08:10:49.000Z,20.56
2022-08-20T08:11:49.000Z,20.58
2022-08-20T08:12:49.000Z,20.58
2022-08-20T08:13:49.000Z,20.60
2022-08-20T08:14:49.000Z,20.65
2022-08-20T08:15:49.000Z,20.66
2022-08-20T08:16:49.000Z,20.75
2022-08-20T08:17:49.000Z,20.75
2022-08-20T08:18:49.000Z,20.81
2022-08-20T08:19:49.000Z,20.84
2022-08-20T08:20:49.000Z,20.85
2022-08-20T08:21:49.000Z,20.88
2022-08-20T08:22:49.000Z,20.90
2022-08-20T08:23:49.000Z,20.95
2022-08-20T08:24:49.000Z,20.99
2022-08-20T08:25:49.000Z,21.00
2022-08-20T08:26:49.000Z,21.03
2022-08-20T08:27:49.000Z,21.07
2022-08-20T08:28:49.000Z,21.11
2022-08-20T08:29:49.000Z,21.17
2022-08-20T08:30:49.000Z,21.20
2022-08-20T08:31:49.000Z,21.24
2022-08-20T08:32:49.000Z,21.25
2022-08-20T08:33:49.000Z,21.25
2022-08-20T08:34:49.000Z,21.25
2022-08-20T08:35:49.000Z,21.25
2022-08-20T08:36:49.000Z,21.29
2022-08-20T08:37:49.000Z,21.25
2022-08-20T08:38:49.000Z,21.25
2022-08-20T08:39:48.000Z,21.32
2022-08-20T08:40:48.000Z,21.35
2022-08-20T08:41:48.000Z,21.32
2022-08-20T08:42:48.000Z,21.39
2022-08-20T08:43:48.000Z,21.43
2022-08-20T08:44:48.000Z,21.48
2022-08-20T08:45:48.000Z,21.51
2022-08-20T08:46:48.000Z,21.55
2022-08-20T08:47:48.000Z,21.55
2022-08-20T08:48:48.000Z,21.58
2022-08-20T08:49:48.000Z,21.58
2022-08-20T08:50:48.000Z,21.61
2022-08-20T08:51:48.000Z,21.61
2022-08-20T08:52:48.000Z,21.66
2022-08-20T08:53:48.000Z,21.66
2022-08-20T08:54:48.000Z,21.73
2022-08-20T08:55:48.000Z,21.76
2022-08-20T08:56:48.000Z,21.76
2022-08-20T08:57:48.000Z,21.83
2022-08-20T08:58:48.000Z,21.89
2022-08-20T09:16:39.000Z,22.63
2022-08-20T09:16:39.000Z,22.68
2022-08-20T09:17:39.000Z,22.73
2022-08-20T09:18:39.000Z,22.80
2022-08-20T09:19:39.000Z,22.87
2022-08-20T09:20:39.000Z,22.93
2022-08-20T09:21:39.000Z,23.00
2022-08-20T09:22:39.000Z,23.06
2022-08-20T09:23:39.000Z,23.09
2022-08-20T09:24:39.000Z,23.20
2022-08-20T09:25:39.000Z,23.24
2022-08-20T09:26:39.000Z,23.25
2022-08-20T09:27:39.000Z,23.28
2022-08-20T09:28:39.000Z,23.36
2022-08-20T09:29:39.000Z,23.40
2022-08-20T09:42:13.000Z,24.11
2022-08-20T09:42:13.000Z,24.14
2022-08-20T09:43:13.000Z,24.21
2022-08-20T09:44:13.000Z,24.28
2022-08-20T09:45:13.000Z,24.30
2022-08-20T09:46:13.000Z,24.35
2022-08-20T09:47:13.000Z,24.36
2022-08-20T09:48:13.000Z,24.33
2022-08-20T09:49:13.000Z,24.36
2022-08-20T09:50:13.000Z,24.29
2022-08-20T09:51:13.000Z,24.28
2022-08-20T09:52:13.000Z,24.24
2022-08-20T09:53:13.000Z,24.13
2022-08-20T09:54:13.000Z,24.08
2022-08-20T09:55:13.000Z,24.03
2022-08-20T10:02:30.000Z,23.95
2022-08-20T10:02:30.000Z,23.98
2022-08-20T10:03:30.000Z,23.95
2022-08-20T10:04:30.000Z,23.96
2022-08-20T10:05:30.000Z,23.96
2022-08-20T10:06:30.000Z,23.96
2022-08-20T10:07:30.000Z,23.96
2022-08-20T10:08:30.000Z,23.95
2022-08-20T10:09:30.000Z,23.96
2022-08-20T10:10:30.000Z,23.96
2022-08-20T10:11:30.000Z,23.98
2022-08-20T10:12:30.000Z,23.98
2022-08-20T10:13:30.000Z,24.01
2022-08-20T10:14:30.000Z,24.01
2022-08-20T10:15:30.000Z,24.02
2022-08-20T10:16:30.000Z,24.01
2022-08-20T10:17:30.000Z,23.99
2022-08-20T10:18:30.000Z,24.06
2022-08-20T10:19:30.000Z,24.05
2022-08-20T10:20:30.000Z,24.03
2022-08-20T10:21:30.000Z,24.06
2022-08-20T10:22:30.000Z,24.11
2022-08-20T10:23:30.000Z,24.08
2022-08-20T10:24:30.000Z,24.10
2022-08-20T10:25:30.000Z,24.08
2022-08-20T10:26:30.000Z,24.14
2022-08-20T10:27:30.000Z,24.17
2022-08-20T10:28:30.000Z,24.23
2022-08-20T10:29:30.000Z,24.26
2022-08-20T10:30:30.000Z,24.33
2022-08-20T10:31:30.000Z,24.35
2022-08-20T10:32:30.000Z,24.40
2022-08-20T10:33:30.000Z,24.38
2022-08-20T10:34:30.000Z,24.42
2022-08-20T10:35:30.000Z,24.48
2022-08-20T10:36:30.000Z,24.54
2022-08-20T10:37:30.000Z,24.55
2022-08-20T10:38:30.000Z,24.63
2022-08-20T10:39:30.000Z,24.70
2022-08-20T10:40:30.000Z,24.76
2022-08-20T10:41:30.000Z,24.84
2022-08-20T10:42:30.000Z,24.91
2022-08-20T10:43:30.000Z,25.06
2022-08-20T10:44:30.000Z,25.14
2022-08-20T10:45:30.000Z,25.22
2022-08-20T10:46:30.000Z,25.32
2022-08-20T10:47:30.000Z,25.47
2022-08-20T10:48:30.000Z,25.54
2022-08-20T10:49:30.000Z,25.63
2022-08-20T10:50:30.000Z,25.70
2022-08-20T10:51:30.000Z,25.73
2022-08-20T10:52:30.000Z,25.70
2022-08-20T10:53:30.000Z,25.77
2022-08-20T10:54:30.000Z,25.83
2022-08-20T10:55:30.000Z,25.81
2022-08-20T10:56:30.000Z,25.81
2022-08-20T10:57:30.000Z,25.83
2022-08-20T10:58:30.000Z,25.84
2022-08-20T10:59:30.000Z,25.87
2022-08-20T11:00:30.000Z,26.02
2022-08-20T11:01:30.000Z,25.93
2022-08-20T11:02:30.000Z,25.96
2022-08-20T11:03:29.000Z,25.93
2022-08-20T11:04:29.000Z,25.91
2022-08-20T11:05:29.000Z,25.83
2022-08-20T11:06:29.000Z,25.77
2022-08-20T11:07:29.000Z,25.77
2022-08-20T11:08:29.000Z,25.73
2022-08-20T11:09:29.000Z,25.62
2022-08-20T11:10:29.000Z,25.63
2022-08-20T11:11:29.000Z,25.62
2022-08-20T11:12:29.000Z,25.63
2022-08-20T11:13:29.000Z,25.68
2022-08-20T11:14:29.000Z,25.69
2022-08-20T11:15:29.000Z,25.80
2022-08-20T11:16:29.000Z,25.85
2022-08-20T11:17:29.000Z,25.88
2022-08-20T11:18:29.000Z,25.90
2022-08-20T11:19:29.000Z,25.91
2022-08-20T11:20:29.000Z,25.93
2022-08-20T11:21:29.000Z,25.98
2022-08-20T11:22:29.000Z,25.98
2022-08-20T11:23:29.000Z,25.99
2022-08-20T11:24:29.000Z,26.05
2022-08-20T11:25:29.000Z,26.06
2022-08-20T11:26:29.000Z,26.10
2022-08-20T11:27:29.000Z,26.05
2022-08-20T11:28:29.000Z,26.00
2022-08-20T11:29:29.000Z,25.98
2022-08-20T11:30:29.000Z,25.98
2022-08-20T11:31:29.000Z,25.93
2022-08-20T11:32:29.000Z,25.90
2022-08-20T11:33:29.000Z,25.84
2022-08-20T11:34:29.000Z,25.78
2022-08-20T11:35:29.000Z,25.78
2022-08-20T11:36:29.000Z,25.72
2022-08-20T11:37:29.000Z,25.68
2022-08-20T11:38:29.000Z,25.60
2022-08-20T11:39:29.000Z,25.58
2022-08-20T11:40:29.000Z,25.50
2022-08-20T11:41:29.000Z,25.47
2022-08-20T11:42:29.000Z,25.47
2022-08-20T11:43:29.000Z,25.46
2022-08-20T11:44:29.000Z,25.46
2022-08-20T11:45:29.000Z,25.46
2022-08-20T11:46:29.000Z,25.40
2022-08-20T11:46:29.000Z,25.40
2022-08-20T11:46:29.000Z,25.40
2022-08-20T11:47:29.000Z,25.43
2022-08-20T11:47:29.000Z,25.43
2022-08-20T11:47:29.000Z,25.43
2022-08-20T11:48:29.000Z,25.43
2022-08-20T11:48:29.000Z,25.43
2022-08-20T11:48:29.000Z,25.43
2022-08-20T11:49:29.000Z,25.43
2022-08-20T11:49:29.000Z,25.43
2022-08-20T11:49:29.000Z,25.43
2022-08-20T11:50:29.000Z,25.40
2022-08-20T11:50:29.000Z,25.40
2022-08-20T11:50:29.000Z,25.40
2022-08-20T11:51:29.000Z,25.40
2022-08-20T11:51:29.000Z,25.40
2022-08-20T11:52:29.000Z,25.41
2022-08-20T11:52:29.000Z,25.41
2022-08-20T11:53:29.000Z,25.43
2022-08-20T11:53:29.000Z,25.43
2022-08-20T11:54:29.000Z,25.35
2022-08-20T11:54:29.000Z,25.35
2022-08-20T11:55:29.000Z,25.38
2022-08-20T11:55:29.000Z,25.38
2022-08-20T11:56:29.000Z,25.43
2022-08-20T11:57:29.000Z,25.46
2022-08-20T11:58:29.000Z,25.50
2022-08-20T11:59:29.000Z,25.48
2022-08-20T12:00:29.000Z,25.50
2022-08-20T12:02:46.000Z,25.54
2022-08-20T12:02:46.000Z,25.50
2022-08-20T12:03:46.000Z,25.53
2022-08-20T12:04:46.000Z,25.54
2022-08-20T12:05:46.000Z,25.54
2022-08-20T12:06:46.000Z,25.63
2022-08-20T12:07:46.000Z,25.70
2022-08-20T12:08:46.000Z,25.72
2022-08-20T12:09:46.000Z,25.78
2022-08-20T12:10:46.000Z,25.87
2022-08-20T12:11:46.000Z,25.95
2022-08-20T12:12:46.000Z,26.03
2022-08-20T12:13:46.000Z,26.13
2022-08-20T12:14:46.000Z,26.16
2022-08-20T12:15:46.000Z,26.19
2022-08-20T12:16:46.000Z,26.28
2022-08-20T12:17:46.000Z,26.26
2022-08-20T12:18:46.000Z,26.36
2022-08-20T12:19:46.000Z,26.37
2022-08-20T12:20:46.000Z,26.45
2022-08-20T12:21:46.000Z,26.52
2022-08-20T12:22:46.000Z,26.52
2022-08-20T12:23:46.000Z,26.52
2022-08-20T12:24:46.000Z,26.45
2022-08-20T12:25:46.000Z,26.47
2022-08-20T12:26:46.000Z,26.48
2022-08-20T12:27:46.000Z,26.47
2022-08-20T12:28:46.000Z,26.51
2022-08-20T12:29:46.000Z,26.44
2022-08-20T12:30:46.000Z,26.41
2022-08-20T12:31:46.000Z,26.31
2022-08-20T12:32:46.000Z,26.25
2022-08-20T12:33:46.000Z,26.18
2022-08-20T12:34:46.000Z,26.15
2022-08-20T12:35:46.000Z,26.09
2022-08-20T12:36:46.000Z,26.02
2022-08-20T12:37:46.000Z,25.96
2022-08-20T12:38:46.000Z,25.96
2022-08-20T12:39:46.000Z,25.87
2022-08-20T12:40:46.000Z,25.81
2022-08-20T12:41:46.000Z,25.77
2022-08-20T12:42:46.000Z,25.68
2022-08-20T12:43:46.000Z,25.60
2022-08-20T12:44:46.000Z,25.55
2022-08-20T12:45:46.000Z,25.51
2022-08-20T12:46:46.000Z,25.48
2022-08-20T12:47:46.000Z,25.44
2022-08-20T12:48:46.000Z,25.43
2022-08-20T12:49:46.000Z,25.40
2022-08-20T12:50:46.000Z,25.40
2022-08-20T12:51:46.000Z,25.38
2022-08-20T12:52:46.000Z,25.43
2022-08-20T12:53:46.000Z,25.47
2022-08-20T12:54:46.000Z,25.50
2022-08-20T12:55:46.000Z,25.47
2022-08-20T12:56:46.000Z,25.47
2022-08-20T12:57:46.000Z,25.48
2022-08-20T12:58:46.000Z,25.47
2022-08-20T12:59:46.000Z,25.46
2022-08-20T13:00:46.000Z,25.41
2022-08-20T13:01:46.000Z,25.43
2022-08-20T13:02:46.000Z,25.44
2022-08-20T13:03:45.000Z,25.41
2022-08-20T13:04:45.000Z,25.32
2022-08-20T13:05:45.000Z,25.25
2022-08-20T13:06:45.000Z,25.32
2022-08-20T13:07:45.000Z,25.29
2022-08-20T13:08:45.000Z,25.28
2022-08-20T13:09:45.000Z,25.29
2022-08-20T13:10:45.000Z,25.28
2022-08-20T13:11:45.000Z,25.26
2022-08-20T13:12:45.000Z,25.23
2022-08-20T13:13:45.000Z,25.17
2022-08-20T13:14:45.000Z,25.16
2022-08-20T13:15:45.000Z,25.14
2022-08-20T13:16:45.000Z,25.14
2022-08-20T13:17:45.000Z,25.11
2022-08-20T13:18:45.000Z,25.11
2022-08-20T13:19:45.000Z,25.10
2022-08-20T13:20:45.000Z,25.06
2022-08-20T13:21:45.000Z,25.06
2022-08-20T13:22:45.000Z,25.06
2022-08-20T13:23:45.000Z,25.06
2022-08-20T13:24:45.000Z,25.01
2022-08-20T13:25:45.000Z,25.07
2022-08-20T13:26:45.000Z,24.96
2022-08-20T13:27:45.000Z,24.91
2022-08-20T13:28:45.000Z,24.91
2022-08-20T13:29:45.000Z,24.89
2022-08-20T13:30:45.000Z,24.93
2022-08-20T13:31:45.000Z,24.91
2022-08-20T13:32:45.000Z,24.86
2022-08-20T13:33:45.000Z,24.91
2022-08-20T13:34:45.000Z,24.92
2022-08-20T13:35:45.000Z,24.91
2022-08-20T13:36:45.000Z,24.99
2022-08-20T13:37:45.000Z,24.92
2022-08-20T13:38:45.000Z,24.96
2022-08-20T13:39:45.000Z,24.98
2022-08-20T13:40:45.000Z,24.99
2022-08-20T13:41:45.000Z,25.10
2022-08-20T13:42:45.000Z,25.07